createdAt,value
2023-04-06T00:01:03.223Z,94.00
2023-04-06T00:03:30.727Z,94.00
2023-04-06T00:05:57.831Z,94.00
2023-04-06T00:08:24.855Z,94.10
2023-04-06T00:10:51.950Z,94.20
2023-04-06T00:13:19.151Z,94.20
2023-04-06T00:15:46.113Z,94.30
2023-04-06T00:18:13.483Z,94.30
2023-04-06T00:20:40.523Z,94.40
2023-04-06T00:23:07.718Z,94.40
2023-04-06T00:25:34.935Z,94.50
2023-04-06T00:28:02.068Z,94.60
2023-04-06T00:30:29.113Z,94.60
2023-04-06T00:32:56.133Z,94.70
2023-04-06T00:35:23.161Z,94.70
2023-04-06T00:37:50.186Z,94.80
2023-04-06T00:40:17.847Z,94.90
2023-04-06T00:42:45.333Z,95.00
2023-04-06T00:45:12.478Z,95.00
2023-04-06T00:47:39.544Z,95.10
2023-04-06T00:50:07.543Z,95.10
2023-04-06T00:52:36.700Z,95.10
2023-04-06T00:55:05.365Z,95.30
2023-04-06T00:57:32.890Z,95.20
2023-04-06T01:00:00.196Z,95.30
2023-04-06T01:02:27.623Z,95.40
2023-04-06T01:04:55.760Z,95.40
2023-04-06T01:07:22.975Z,95.50
2023-04-06T01:09:50.013Z,95.50
2023-04-06T01:12:17.282Z,95.60
2023-04-06T01:14:44.341Z,96.00
2023-04-06T01:17:11.486Z,95.70
2023-04-06T01:19:38.586Z,95.70
2023-04-06T01:22:05.986Z,95.70
2023-04-06T01:24:33.860Z,95.80
2023-04-06T01:27:02.217Z,95.80
2023-04-06T01:29:29.325Z,95.80
2023-04-06T01:31:56.632Z,95.90
2023-04-06T01:34:23.696Z,95.90
2023-04-06T01:36:51.294Z,96.00
2023-04-06T01:39:18.412Z,96.10
2023-04-06T01:41:45.432Z,96.20
2023-04-06T01:44:12.489Z,96.30
2023-04-06T01:46:39.553Z,96.30
2023-04-06T01:49:06.958Z,96.30
2023-04-06T01:51:38.709Z,96.30
2023-04-06T01:54:06.473Z,96.40
2023-04-06T01:56:33.464Z,96.40
2023-04-06T01:59:00.470Z,96.50
2023-04-06T02:01:27.586Z,96.60
2023-04-06T02:03:54.677Z,96.70
2023-04-06T02:06:21.778Z,96.70
2023-04-06T02:08:48.815Z,96.70
2023-04-06T02:11:16.119Z,96.60
2023-04-06T02:13:43.125Z,96.80
2023-04-06T02:16:10.764Z,96.80
2023-04-06T02:18:37.802Z,97.00
2023-04-06T02:21:05.038Z,96.90
2023-04-06T02:23:32.079Z,97.00
2023-04-06T02:25:59.042Z,97.00
2023-04-06T02:28:26.043Z,97.10
2023-04-06T02:30:53.330Z,97.20
2023-04-06T02:33:20.558Z,97.20
2023-04-06T02:35:47.658Z,97.30
2023-04-06T02:38:14.669Z,97.30
2023-04-06T02:40:41.754Z,97.40
2023-04-06T02:43:08.945Z,97.40
2023-04-06T02:45:36.069Z,97.40
2023-04-06T02:48:03.266Z,97.50
2023-04-06T02:50:30.371Z,97.50
2023-04-06T02:52:57.422Z,97.50
2023-04-06T02:55:24.463Z,97.70
2023-04-06T02:57:51.433Z,97.80
2023-04-06T03:00:19.080Z,97.80
2023-04-06T03:02:46.240Z,97.90
2023-04-06T03:05:13.439Z,97.90
2023-04-06T03:07:40.714Z,97.90
2023-04-06T03:10:08.521Z,98.00
2023-04-06T03:12:35.673Z,98.00
2023-04-06T03:15:02.844Z,97.90
2023-04-06T03:17:29.831Z,98.10
2023-04-06T03:19:56.825Z,98.20
2023-04-06T03:22:23.922Z,98.40
2023-04-06T03:24:50.947Z,98.20
2023-04-06T03:27:18.029Z,98.30
2023-04-06T03:29:45.005Z,98.30
2023-04-06T03:32:12.091Z,98.30
2023-04-06T03:34:40.688Z,98.40
2023-04-06T03:37:10.367Z,98.40
2023-04-06T03:39:38.004Z,98.40
2023-04-06T03:42:05.402Z,98.40
2023-04-06T03:44:32.979Z,98.40
2023-04-06T03:47:00.442Z,98.40
2023-04-06T03:49:27.565Z,98.40
2023-04-06T03:51:55.504Z,98.50
2023-04-06T03:54:23.202Z,98.50
2023-04-06T03:56:50.403Z,98.60
2023-04-06T03:59:17.426Z,98.50
2023-04-06T04:01:44.482Z,98.50
2023-04-06T04:04:11.925Z,98.60
2023-04-06T04:06:39.045Z,98.70
2023-04-06T04:09:06.093Z,98.80
2023-04-06T04:11:33.146Z,98.90
2023-04-06T04:14:00.301Z,99.00
2023-04-06T04:16:27.361Z,99.00
2023-04-06T04:18:54.413Z,99.10
2023-04-06T04:21:21.548Z,99.10
2023-04-06T04:23:48.566Z,99.00
2023-04-06T04:26:15.668Z,99.10
2023-04-06T04:28:42.650Z,99.10
2023-04-06T04:31:09.858Z,99.20
2023-04-06T04:33:37.052Z,99.20
2023-04-06T04:36:04.522Z,99.30
2023-04-06T04:38:31.559Z,99.30
2023-04-06T04:40:58.523Z,99.30
2023-04-06T04:43:25.730Z,99.40
2023-04-06T04:45:53.578Z,99.40
2023-04-06T04:48:20.896Z,99.50
2023-04-06T04:50:47.880Z,99.60
2023-04-06T04:53:14.925Z,99.60
2023-04-06T04:55:41.927Z,99.70
2023-04-06T04:58:10.100Z,99.70
2023-04-06T05:00:37.234Z,99.70
2023-04-06T05:03:06.590Z,99.70
2023-04-06T05:05:33.661Z,99.60
2023-04-06T05:08:00.692Z,99.70
2023-04-06T05:10:27.851Z,99.90
2023-04-06T05:12:55.522Z,99.90
2023-04-06T05:15:22.559Z,99.90
2023-04-06T05:17:49.612Z,99.90
2023-04-06T05:20:17.116Z,99.90
2023-04-06T05:22:44.150Z,99.90
2023-04-06T05:25:11.235Z,99.90
2023-04-06T05:27:38.326Z,99.90
2023-04-06T05:30:06.795Z,99.90
2023-04-06T05:32:34.369Z,99.90
2023-04-06T05:35:01.534Z,99.90
2023-04-06T05:37:28.578Z,99.90
2023-04-06T05:39:55.678Z,99.90
2023-04-06T05:42:24.150Z,99.60
2023-04-06T05:44:51.185Z,99.20
2023-04-06T05:47:18.213Z,98.60
2023-04-06T05:49:45.506Z,97.80
2023-04-06T05:52:12.515Z,97.30
2023-04-06T05:54:39.664Z,96.80
2023-04-06T05:57:06.677Z,96.40
2023-04-06T05:59:33.739Z,95.90
2023-04-06T06:02:02.253Z,95.40
2023-04-06T06:04:29.428Z,94.60
2023-04-06T06:06:56.455Z,93.80
2023-04-06T06:09:23.605Z,92.80
2023-04-06T06:11:50.952Z,92.20
2023-04-06T06:14:18.115Z,91.30
2023-04-06T06:16:45.266Z,90.40
2023-04-06T06:19:12.364Z,87.80
2023-04-06T06:21:39.371Z,86.10
2023-04-06T06:24:07.310Z,83.80
2023-04-06T06:26:36.795Z,82.20
2023-04-06T06:29:06.472Z,80.90
2023-04-06T06:31:34.042Z,79.90
2023-04-06T06:34:01.123Z,78.50
2023-04-06T06:36:28.449Z,77.30
2023-04-06T06:38:55.485Z,76.10
2023-04-06T06:41:22.492Z,74.80
2023-04-06T06:43:49.504Z,64.70
2023-04-06T06:46:16.682Z,66.20
2023-04-06T06:48:43.875Z,68.60
2023-04-06T06:51:12.762Z,69.60
2023-04-06T06:53:39.942Z,69.00
2023-04-06T06:56:07.293Z,65.00
2023-04-06T06:58:34.357Z,71.40
2023-04-06T07:01:01.862Z,72.80
2023-04-06T07:03:28.986Z,70.40
2023-04-06T07:05:56.699Z,63.10
2023-04-06T07:08:25.226Z,60.20
2023-04-06T07:10:53.949Z,66.80
2023-04-06T07:13:25.117Z,67.00
2023-04-06T07:15:52.540Z,65.10
2023-04-06T07:18:23.754Z,61.40
2023-04-06T07:20:50.889Z,64.70
2023-04-06T07:23:17.956Z,58.50
2023-04-06T07:25:45.041Z,60.00
2023-04-06T07:28:12.118Z,64.30
2023-04-06T07:30:40.132Z,63.30
2023-04-06T07:33:07.202Z,58.30
2023-04-06T07:35:35.922Z,52.00
2023-04-06T07:38:03.579Z,59.60
2023-04-06T07:40:33.741Z,57.00
2023-04-06T07:43:01.012Z,55.40
2023-04-06T07:45:28.075Z,58.20
2023-04-06T07:47:55.202Z,57.30
2023-04-06T07:50:22.484Z,56.50
2023-04-06T07:52:49.710Z,55.10
2023-04-06T07:55:17.989Z,57.60
2023-04-06T07:57:45.386Z,54.50
2023-04-06T08:00:14.088Z,54.20
2023-04-06T08:02:41.318Z,53.80
2023-04-06T08:05:08.938Z,56.20
2023-04-06T08:07:37.347Z,56.90
2023-04-06T08:10:05.379Z,57.50
2023-04-06T08:12:35.134Z,57.20
2023-04-06T08:15:03.638Z,57.00
2023-04-06T08:17:32.241Z,54.20
2023-04-06T08:19:59.542Z,53.50
2023-04-06T08:22:26.650Z,46.70
2023-04-06T08:24:54.376Z,51.40
2023-04-06T08:27:21.609Z,53.80
2023-04-06T08:29:50.766Z,54.90
2023-04-06T08:32:17.848Z,54.30
2023-04-06T08:34:44.925Z,54.30
2023-04-06T08:37:12.053Z,53.70
2023-04-06T08:39:39.098Z,51.80
2023-04-06T08:42:13.836Z,50.10
2023-04-06T08:44:42.206Z,52.50
2023-04-06T08:47:09.325Z,50.20
2023-04-06T08:49:39.874Z,51.80
2023-04-06T08:52:11.858Z,53.30
2023-04-06T08:54:40.166Z,52.80
2023-04-06T08:57:08.501Z,52.70
2023-04-06T08:59:37.569Z,51.80
2023-04-06T09:02:06.597Z,50.70
2023-04-06T09:04:36.765Z,51.40
2023-04-06T09:07:03.925Z,50.90
2023-04-06T09:09:30.986Z,49.40
2023-04-06T09:12:06.886Z,49.40
2023-04-06T09:14:40.556Z,49.40
2023-04-06T09:17:07.880Z,49.60
2023-04-06T09:19:34.944Z,48.20
2023-04-06T09:22:08.358Z,49.40
2023-04-06T09:24:51.254Z,45.40
2023-04-06T09:27:19.183Z,47.50
2023-04-06T09:29:46.333Z,47.20
2023-04-06T09:32:17.523Z,47.80
2023-04-06T09:34:48.061Z,47.40
2023-04-06T09:37:20.584Z,49.00
2023-04-06T09:39:48.336Z,49.20
2023-04-06T09:42:29.273Z,48.80
2023-04-06T09:44:56.500Z,47.40
2023-04-06T09:47:27.766Z,47.70
2023-04-06T09:50:01.344Z,46.20
2023-04-06T09:52:41.582Z,47.00
2023-04-06T09:55:10.869Z,48.80
2023-04-06T09:58:07.650Z,50.40
2023-04-06T10:01:06.912Z,48.30
2023-04-06T10:03:56.098Z,49.10
2023-04-06T10:06:29.610Z,51.80
2023-04-06T10:08:58.882Z,51.00
2023-04-06T10:11:26.495Z,53.70
2023-04-06T10:13:53.688Z,55.20
2023-04-06T10:16:20.943Z,54.40
2023-04-06T10:18:55.163Z,55.40
2023-04-06T10:21:27.706Z,54.50
2023-04-06T10:24:03.294Z,54.30
2023-04-06T10:26:30.319Z,54.50
2023-04-06T10:29:06.940Z,53.90
2023-04-06T10:31:34.048Z,52.80
2023-04-06T10:34:03.307Z,53.50
2023-04-06T10:36:35.025Z,54.70
2023-04-06T10:39:07.727Z,53.90
2023-04-06T10:41:47.198Z,52.00
2023-04-06T10:44:25.671Z,55.20
2023-04-06T10:47:04.128Z,55.70
2023-04-06T10:49:31.232Z,55.00
2023-04-06T10:51:58.744Z,55.50
2023-04-06T10:54:28.281Z,56.30
2023-04-06T10:56:57.131Z,56.70
2023-04-06T10:59:26.137Z,57.50
2023-04-06T11:01:54.286Z,57.20
2023-04-06T11:04:22.092Z,57.60
2023-04-06T11:06:51.130Z,57.30
2023-04-06T11:10:05.452Z,57.60
2023-04-06T11:12:38.104Z,57.50
2023-04-06T11:15:06.861Z,57.30
2023-04-06T11:17:38.115Z,56.70
2023-04-06T11:20:11.996Z,58.20
2023-04-06T11:22:50.864Z,58.40
2023-04-06T11:25:18.345Z,58.30
2023-04-06T11:27:47.905Z,58.70
2023-04-06T11:30:16.254Z,57.30
2023-04-06T11:32:46.391Z,58.30
2023-04-06T11:35:24.541Z,58.70
2023-04-06T11:37:52.453Z,58.40
2023-04-06T11:40:28.963Z,59.10
2023-04-06T11:43:01.309Z,59.30
2023-04-06T11:45:28.326Z,58.10
2023-04-06T11:48:01.518Z,58.50
2023-04-06T11:50:36.760Z,59.50
2023-04-06T11:53:04.247Z,59.00
2023-04-06T11:55:40.099Z,59.60
2023-04-06T11:58:08.151Z,60.50
2023-04-06T12:00:35.839Z,60.70
2023-04-06T12:03:02.990Z,59.80
2023-04-06T12:05:30.171Z,59.80
2023-04-06T12:08:00.035Z,59.60
2023-04-06T12:10:29.406Z,60.20
2023-04-06T12:12:56.600Z,60.60
2023-04-06T12:15:23.774Z,59.90
2023-04-06T12:17:50.961Z,60.50
2023-04-06T12:20:26.039Z,59.70
2023-04-06T12:22:54.584Z,62.50
2023-04-06T12:25:21.891Z,58.60
2023-04-06T12:27:48.977Z,60.00
2023-04-06T12:30:16.490Z,61.40
2023-04-06T12:32:43.574Z,61.20
2023-04-06T12:35:12.699Z,59.70
2023-04-06T12:37:39.954Z,61.00
2023-04-06T12:40:08.112Z,60.40
2023-04-06T12:42:35.201Z,60.90
2023-04-06T12:45:02.205Z,61.90
2023-04-06T12:47:29.946Z,61.90
2023-04-06T12:49:57.599Z,62.60
2023-04-06T12:52:24.739Z,61.30
2023-04-06T12:54:52.431Z,62.10
2023-04-06T12:57:19.895Z,62.50
2023-04-06T12:59:47.437Z,62.00
2023-04-06T13:02:14.791Z,62.70
2023-04-06T13:04:42.756Z,62.80
2023-04-06T13:07:09.801Z,62.90
2023-04-06T13:09:36.801Z,62.20
2023-04-06T13:12:04.122Z,62.60
2023-04-06T13:14:32.367Z,62.10
2023-04-06T13:16:59.371Z,61.90
2023-04-06T13:19:26.621Z,61.20
2023-04-06T13:21:53.806Z,59.60
2023-04-06T13:24:21.218Z,61.10
2023-04-06T13:26:48.275Z,61.60
2023-04-06T13:29:15.356Z,59.90
2023-04-06T13:31:42.631Z,61.70
2023-04-06T13:34:09.647Z,61.60
2023-04-06T13:36:36.744Z,60.60
2023-04-06T13:39:04.286Z,61.20
2023-04-06T13:41:31.300Z,62.60
2023-04-06T13:43:58.986Z,62.90
2023-04-06T13:46:26.404Z,62.10
2023-04-06T13:48:53.444Z,61.00
2023-04-06T13:51:20.496Z,61.40
2023-04-06T13:53:47.802Z,62.70
2023-04-06T13:56:14.845Z,62.50
2023-04-06T13:58:42.036Z,62.60
2023-04-06T14:01:11.458Z,61.10
2023-04-06T14:03:41.198Z,62.40
2023-04-06T14:06:26.832Z,62.30
2023-04-06T14:08:54.704Z,62.30
2023-04-06T14:11:21.729Z,62.30
2023-04-06T14:13:48.721Z,62.20
2023-04-06T14:16:16.296Z,62.30
2023-04-06T14:18:43.756Z,61.00
2023-04-06T14:21:10.909Z,61.60
2023-04-06T14:23:38.112Z,61.10
2023-04-06T14:26:07.728Z,61.90
2023-04-06T14:28:35.917Z,60.50
2023-04-06T14:31:12.745Z,62.10
2023-04-06T14:33:40.833Z,62.70
2023-04-06T14:36:09.880Z,62.10
2023-04-06T14:38:36.931Z,58.70
2023-04-06T14:41:03.937Z,60.00
2023-04-06T14:43:31.134Z,60.90
2023-04-06T14:46:02.720Z,61.60
2023-04-06T14:48:30.073Z,61.70
2023-04-06T14:50:58.400Z,62.30
2023-04-06T14:53:26.066Z,62.30
2023-04-06T14:55:53.950Z,62.40
2023-04-06T14:58:22.396Z,62.10
2023-04-06T15:00:50.102Z,62.90
2023-04-06T15:03:17.676Z,63.20
2023-04-06T15:05:45.970Z,63.60
2023-04-06T15:08:14.748Z,64.20
2023-04-06T15:10:41.728Z,63.60
2023-04-06T15:13:08.704Z,64.10
2023-04-06T15:15:36.515Z,64.70
2023-04-06T15:18:03.725Z,64.90
2023-04-06T15:20:31.522Z,65.00
2023-04-06T15:22:58.530Z,65.40
2023-04-06T15:25:25.778Z,65.60
2023-04-06T15:27:52.787Z,65.70
2023-04-06T15:30:19.832Z,66.40
2023-04-06T15:33:13.425Z,66.60
2023-04-06T15:35:42.890Z,66.70
2023-04-06T15:38:11.689Z,67.20
2023-04-06T15:40:50.055Z,67.80
2023-04-06T15:43:17.558Z,68.40
2023-04-06T15:45:44.573Z,68.40
2023-04-06T15:48:11.527Z,68.60
2023-04-06T15:50:38.754Z,68.90
2023-04-06T15:53:06.078Z,69.00
2023-04-06T15:55:33.236Z,69.40
2023-04-06T15:58:00.208Z,69.50
2023-04-06T16:00:28.891Z,69.80
2023-04-06T16:02:57.054Z,69.90
2023-04-06T16:05:24.451Z,70.10
2023-04-06T16:07:51.398Z,70.40
2023-04-06T16:10:18.454Z,70.90
2023-04-06T16:12:45.503Z,71.30
2023-04-06T16:15:12.914Z,71.20
2023-04-06T16:17:40.001Z,71.60
2023-04-06T16:20:08.250Z,71.80
2023-04-06T16:22:35.330Z,72.00
2023-04-06T16:25:03.013Z,72.40
2023-04-06T16:27:29.956Z,72.90
2023-04-06T16:29:56.938Z,73.00
2023-04-06T16:32:24.091Z,73.90
2023-04-06T16:34:52.255Z,74.00
2023-04-06T16:37:20.143Z,74.30
2023-04-06T16:39:47.235Z,75.00
2023-04-06T16:42:16.150Z,75.70
2023-04-06T16:44:43.174Z,77.80
2023-04-06T16:47:10.184Z,77.50
2023-04-06T16:49:37.151Z,79.20
2023-04-06T16:52:06.288Z,82.10
2023-04-06T16:54:34.646Z,83.80
2023-04-06T16:57:02.849Z,84.90
2023-04-06T16:59:31.317Z,83.60
2023-04-06T17:01:58.582Z,87.70
2023-04-06T17:04:25.624Z,90.70
2023-04-06T17:06:52.884Z,88.00
2023-04-06T17:09:19.902Z,90.90
2023-04-06T17:11:47.270Z,90.70
2023-04-06T17:14:14.492Z,94.30
2023-04-06T17:16:41.638Z,95.80
2023-04-06T17:19:08.663Z,99.20
2023-04-06T17:21:36.125Z,99.90
2023-04-06T17:24:03.251Z,99.90
2023-04-06T17:26:30.227Z,99.90
2023-04-06T17:28:57.277Z,99.90
2023-04-06T17:31:24.253Z,99.90
2023-04-06T17:33:51.401Z,99.90
2023-04-06T17:36:19.290Z,99.90
2023-04-06T17:38:47.618Z,99.90
2023-04-06T17:41:14.839Z,99.90
2023-04-06T17:43:42.414Z,99.90
2023-04-06T17:46:09.537Z,99.90
2023-04-06T17:48:36.582Z,99.90
2023-04-06T17:51:03.586Z,99.90
2023-04-06T17:53:32.515Z,99.90
2023-04-06T17:56:04.501Z,99.90
2023-04-06T17:58:31.833Z,99.90
2023-04-06T18:00:58.955Z,99.90
2023-04-06T18:03:26.248Z,99.90
2023-04-06T18:05:53.247Z,99.90
2023-04-06T18:08:21.725Z,99.90
2023-04-06T18:10:48.954Z,99.90
2023-04-06T18:13:16.416Z,99.90
2023-04-06T18:15:43.444Z,99.90
2023-04-06T18:18:10.468Z,99.90
2023-04-06T18:20:41.631Z,99.90
2023-04-06T18:23:08.709Z,99.90
2023-04-06T18:25:40.427Z,99.90
2023-04-06T18:28:09.437Z,99.90
2023-04-06T18:30:36.586Z,99.90
2023-04-06T18:33:04.371Z,99.90
2023-04-06T18:35:31.665Z,99.90
2023-04-06T18:37:58.920Z,99.90
2023-04-06T18:40:35.910Z,99.90
2023-04-06T18:43:06.293Z,99.90
2023-04-06T18:45:40.856Z,99.90
2023-04-06T18:48:07.832Z,99.90
2023-04-06T18:50:35.496Z,99.90
2023-04-06T18:53:03.121Z,99.90
2023-04-06T18:55:33.709Z,99.90
2023-04-06T18:58:00.937Z,99.90
2023-04-06T19:00:28.002Z,99.90
2023-04-06T19:02:55.319Z,99.90
2023-04-06T19:05:22.609Z,99.90
2023-04-06T19:07:52.698Z,99.90
2023-04-06T19:10:20.375Z,99.90
2023-04-06T19:12:48.060Z,99.90
2023-04-06T19:15:16.156Z,99.90
2023-04-06T19:17:43.481Z,99.90
2023-04-06T19:20:11.172Z,99.90
2023-04-06T19:22:38.622Z,99.90
2023-04-06T19:25:07.876Z,99.90
2023-04-06T19:27:35.439Z,99.90
2023-04-06T19:30:03.733Z,99.90
2023-04-06T19:32:31.034Z,99.90
2023-04-06T19:34:59.737Z,99.90
2023-04-06T19:37:26.974Z,99.90
2023-04-06T19:39:54.013Z,99.90
2023-04-06T19:42:21.913Z,99.90
2023-04-06T19:44:49.061Z,99.90
2023-04-06T19:47:16.423Z,99.90
2023-04-06T19:49:43.787Z,99.90
2023-04-06T19:52:11.570Z,99.90
2023-04-06T19:54:40.363Z,99.90
2023-04-06T19:57:08.637Z,99.90
2023-04-06T19:59:36.297Z,99.90
2023-04-06T20:02:04.136Z,99.90
2023-04-06T20:04:31.927Z,99.90
2023-04-06T20:06:59.872Z,99.90
2023-04-06T20:09:27.308Z,99.90
2023-04-06T20:11:54.935Z,99.90
2023-04-06T20:14:22.952Z,99.90
2023-04-06T20:16:50.935Z,99.90
2023-04-06T20:19:18.285Z,99.90
2023-04-06T20:21:45.385Z,99.90
2023-04-06T20:24:12.557Z,99.90
2023-04-06T20:26:39.732Z,99.90
2023-04-06T20:29:06.736Z,99.90
2023-04-06T20:31:34.131Z,99.90
2023-04-06T20:34:02.066Z,99.90
2023-04-06T20:36:32.105Z,99.90
2023-04-06T20:38:59.103Z,99.90
2023-04-06T20:41:26.172Z,99.90
2023-04-06T20:43:53.216Z,99.90
2023-04-06T20:46:20.783Z,99.90
2023-04-06T20:48:47.878Z,99.90
2023-04-06T20:51:20.728Z,99.90
2023-04-06T20:53:48.652Z,99.90
2023-04-06T20:56:15.872Z,99.90
2023-04-06T20:58:42.916Z,99.90
2023-04-06T21:01:15.972Z,99.90
2023-04-06T21:03:44.773Z,99.90
2023-04-06T21:06:12.309Z,99.90
2023-04-06T21:08:39.426Z,99.90
2023-04-06T21:11:06.658Z,99.90
2023-04-06T21:13:35.767Z,99.90
2023-04-06T21:16:03.424Z,99.90
2023-04-06T21:18:31.945Z,99.90
2023-04-06T21:20:59.350Z,99.90
2023-04-06T21:23:26.526Z,99.90
2023-04-06T21:25:57.233Z,99.90
2023-04-06T21:28:26.820Z,99.90
2023-04-06T21:30:54.933Z,99.90
2023-04-06T21:33:22.150Z,99.90
2023-04-06T21:35:49.567Z,99.90
2023-04-06T21:38:16.574Z,99.90
2023-04-06T21:40:43.652Z,99.90
2023-04-06T21:43:10.624Z,99.90
2023-04-06T21:45:37.678Z,99.90
2023-04-06T21:48:05.125Z,99.90
2023-04-06T21:50:32.100Z,99.90
2023-04-06T21:52:59.068Z,99.90
2023-04-06T21:55:26.884Z,99.90
2023-04-06T21:57:54.416Z,99.90
2023-04-06T22:00:21.636Z,99.90
2023-04-06T22:02:48.895Z,99.90
2023-04-06T22:05:16.422Z,99.90
2023-04-06T22:07:46.663Z,99.90
2023-04-06T22:10:13.720Z,99.90
2023-04-06T22:12:40.752Z,99.90
2023-04-06T22:15:09.442Z,99.90
2023-04-06T22:17:36.712Z,99.90
2023-04-06T22:20:04.157Z,99.90
2023-04-06T22:22:31.291Z,99.90
2023-04-06T22:24:58.522Z,99.90
2023-04-06T22:27:25.433Z,99.90
2023-04-06T22:29:52.415Z,99.90
2023-04-06T22:32:19.574Z,99.90
2023-04-06T22:34:46.590Z,99.90
2023-04-06T22:37:13.554Z,99.90
2023-04-06T22:39:40.567Z,99.90
2023-04-06T22:42:07.608Z,99.90
2023-04-06T22:44:34.577Z,99.90
2023-04-06T22:47:01.606Z,99.90
2023-04-06T22:49:28.653Z,99.90
2023-04-06T22:51:55.593Z,99.90
2023-04-06T22:54:22.652Z,99.90
2023-04-06T22:56:50.304Z,99.90
2023-04-06T22:59:17.239Z,99.90
2023-04-06T23:01:44.317Z,99.90
2023-04-06T23:04:11.619Z,99.90
2023-04-06T23:06:38.615Z,99.90
2023-04-06T23:09:05.774Z,99.90
2023-04-06T23:11:33.015Z,99.90
2023-04-06T23:13:59.975Z,99.90
2023-04-06T23:16:27.581Z,99.90
2023-04-06T23:18:54.615Z,99.90
2023-04-06T23:21:21.598Z,99.90
2023-04-06T23:23:48.568Z,99.90
2023-04-06T23:26:15.676Z,99.90
2023-04-06T23:28:42.580Z,99.90
2023-04-06T23:31:09.588Z,99.90
2023-04-06T23:33:36.510Z,99.90
2023-04-06T23:36:03.621Z,99.90
2023-04-06T23:38:30.644Z,99.90
2023-04-06T23:40:57.573Z,99.90
2023-04-06T23:43:24.666Z,99.90
2023-04-06T23:45:51.603Z,99.90
2023-04-06T23:48:18.645Z,99.90
2023-04-06T23:50:45.819Z,99.90
2023-04-06T23:53:12.936Z,99.90
2023-04-06T23:55:39.901Z,99.90
2023-04-06T23:58:06.798Z,99.90
